Sparti, Greece
Current Conditions -  °F | °C
As of 2:20 PM on Thursday 18 Dec 2014 (Local Time) from LGKL Reporting Station
Haze Haze  
Wind Chill: 57°   Ceiling: Unl
Heat Index: 57°   Visibility: 5mi
Dew Point: 50°   Wind: 0mph
Humidity: 77%   Direction: NA
Pressure: 30"   Gusts: NA
Location:  37.07°N, 22.43°E
Report Text: LGKL 181220Z 00000KT 8000 3000SE BR FEW015 SCT080 14/10 Q1016
Loading
Personal Weather Stations






























Interactive Weather Map New forecast layout! Learn more

10-Day Weather Forecast

Advertisements
Track Severe Weather on mobile